Terminal Aerodrome Forecast
Issued by NWS Sioux Falls, SD

Home | Current Version | Previous Version | Graphics & Text | Print | Product List | Glossary Off
Versions: 1 2 3 4 5 6 7 8 9 10 11 12 13 14 15 16 17 18 19

000
FTUS43 KFSD 201120
TAFHON
TAF
KHON 201120Z 2012/2112 16008KT 1/2SM FG OVC003
     FM201600 17008KT 6SM BR BKN005
     FM210300 17006KT 2SM BR BKN008=

USA.gov is the U.S. government's official web portal to all federal, state and local government web resources and services.